This is the latest recevied weather packets stored in our database for station/object KCXW. If no packets are shown the sender has not sent any weather packets the latest 10 day(s).
| Time | Temp. | Humidity | Pressure | Rain* | Wind** | Luminosity | Snow |
|---|---|---|---|---|---|---|---|
| 1777827811 | 21.67° C | 43% | 1020 hPa | - | - | - | - |
| 1777827215 | 20.56° C | 43% | 1020.3 hPa | - | - | - | - |
| 1777826612 | 20.56° C | 43% | 1020.3 hPa | - | - | - | - |
| 1777826016 | 20° C | 45% | 1020.7 hPa | - | - | - | - |
| 1777825414 | 20° C | 45% | 1020.7 hPa | - | - | - | - |
| 1777824814 | 20° C | 49% | 1021 hPa | - | - | - | - |
| 1777824217 | 20° C | 49% | 1021 hPa | - | - | - | - |
| 1777823615 | 18.89° C | 52% | 1021.3 hPa | - | - | - | - |
| 1777823015 | 18.89° C | 52% | 1021.3 hPa | - | - | - | - |
| 1777822415 | 17.78° C | 59% | 1021.3 hPa | - | - | - | - |
| 1777821816 | 17.78° C | 59% | 1021.3 hPa | - | - | - | - |
| 1777821214 | 16.67° C | 63% | 1021.7 hPa | - | - | - | - |
| 1777820614 | 15.56° C | 72% | 1021.7 hPa | - | - | - | - |
| 1777820015 | 15.56° C | 72% | 1021.7 hPa | - | - | - | - |
| 1777819416 | 15.56° C | 72% | 1021.7 hPa | - | - | - | - |
| 1777818813 | 13.89° C | 87% | 1021.7 hPa | - | - | - | - |
| 1777818211 | 13.89° C | 87% | 1021.7 hPa | - | - | - | - |
| 1777817607 | 12.78° C | 93% | 1021.7 hPa | - | - | - | - |
| 1777817011 | 12.78° C | 93% | 1021.7 hPa | - | - | - | - |
| 1777816418 | 10.56° C | 100% | 1021.7 hPa | - | - | - | - |
| 1777815812 | 10.56° C | 100% | 1021.7 hPa | - | - | - | - |
| 1777815211 | 10° C | 99% | 1021.7 hPa | - | - | - | - |
| 1777814613 | 10° C | 99% | 1021.7 hPa | - | - | - | - |
| 1777814013 | 10° C | 99% | 1021.7 hPa | - | - | - | - |
| 1777813410 | 10° C | 99% | 1021.7 hPa | - | - | - | - |
* Rain since midnight (hover to see other rain measurements)
** Current wind speed in m/s (hover to see current wind gust speed)